sensor_id;sensor_type;location;lat;lon;timestamp;P1;durP1;ratioP1;P2;durP2;ratioP2
25569;SDS011;17955;45.542;9.238;2022-08-19T00:00:35;5.15;;;1.83;;
25569;SDS011;17955;45.542;9.238;2022-08-19T00:03:02;2.92;;;1.50;;
25569;SDS011;17955;45.542;9.238;2022-08-19T00:05:29;2.90;;;1.50;;
25569;SDS011;17955;45.542;9.238;2022-08-19T00:07:57;4.05;;;1.83;;
25569;SDS011;17955;45.542;9.238;2022-08-19T00:10:26;4.50;;;1.70;;
25569;SDS011;17955;45.542;9.238;2022-08-19T00:12:53;9.20;;;2.35;;
25569;SDS011;17955;45.542;9.238;2022-08-19T00:15:20;5.97;;;1.52;;
25569;SDS011;17955;45.542;9.238;2022-08-19T00:17:48;3.38;;;1.63;;
25569;SDS011;17955;45.542;9.238;2022-08-19T00:20:16;3.03;;;1.50;;
25569;SDS011;17955;45.542;9.238;2022-08-19T00:22:45;5.03;;;1.55;;
25569;SDS011;17955;45.542;9.238;2022-08-19T00:25:12;9.40;;;1.45;;
25569;SDS011;17955;45.542;9.238;2022-08-19T00:27:41;4.53;;;1.50;;
25569;SDS011;17955;45.542;9.238;2022-08-19T00:30:08;5.93;;;1.55;;
25569;SDS011;17955;45.542;9.238;2022-08-19T00:32:36;6.07;;;1.58;;
25569;SDS011;17955;45.542;9.238;2022-08-19T00:35:04;4.60;;;1.58;;
25569;SDS011;17955;45.542;9.238;2022-08-19T00:37:32;6.30;;;1.67;;
25569;SDS011;17955;45.542;9.238;2022-08-19T00:40:00;7.45;;;1.75;;
25569;SDS011;17955;45.542;9.238;2022-08-19T00:42:28;4.28;;;1.50;;
25569;SDS011;17955;45.542;9.238;2022-08-19T00:44:57;3.95;;;1.45;;
25569;SDS011;17955;45.542;9.238;2022-08-19T00:47:24;2.47;;;1.38;;
25569;SDS011;17955;45.542;9.238;2022-08-19T00:49:51;4.95;;;1.60;;
25569;SDS011;17955;45.542;9.238;2022-08-19T00:52:22;4.47;;;1.52;;
25569;SDS011;17955;45.542;9.238;2022-08-19T00:54:54;3.53;;;1.70;;
25569;SDS011;17955;45.542;9.238;2022-08-19T00:57:23;5.82;;;1.60;;
25569;SDS011;17955;45.542;9.238;2022-08-19T00:59:54;4.13;;;1.73;;
25569;SDS011;17955;45.542;9.238;2022-08-19T01:02:24;7.68;;;1.65;;
25569;SDS011;17955;45.542;9.238;2022-08-19T01:04:52;4.05;;;1.98;;
25569;SDS011;17955;45.542;9.238;2022-08-19T01:07:20;6.43;;;1.75;;
25569;SDS011;17955;45.542;9.238;2022-08-19T01:09:47;3.00;;;1.60;;
25569;SDS011;17955;45.542;9.238;2022-08-19T01:12:14;7.32;;;2.08;;
25569;SDS011;17955;45.542;9.238;2022-08-19T01:14:42;5.47;;;1.60;;
25569;SDS011;17955;45.542;9.238;2022-08-19T01:17:10;2.80;;;1.50;;
25569;SDS011;17955;45.542;9.238;2022-08-19T01:19:39;6.82;;;1.42;;
25569;SDS011;17955;45.542;9.238;2022-08-19T01:22:08;4.20;;;1.88;;
25569;SDS011;17955;45.542;9.238;2022-08-19T01:24:40;4.93;;;2.08;;
25569;SDS011;17955;45.542;9.238;2022-08-19T01:27:07;2.75;;;1.38;;
25569;SDS011;17955;45.542;9.238;2022-08-19T01:29:37;7.68;;;1.90;;
25569;SDS011;17955;45.542;9.238;2022-08-19T01:32:06;5.78;;;1.73;;
25569;SDS011;17955;45.542;9.238;2022-08-19T01:34:34;6.78;;;1.88;;
25569;SDS011;17955;45.542;9.238;2022-08-19T01:37:05;3.50;;;1.85;;
25569;SDS011;17955;45.542;9.238;2022-08-19T01:39:36;10.65;;;2.00;;
25569;SDS011;17955;45.542;9.238;2022-08-19T01:42:05;5.53;;;2.05;;
25569;SDS011;17955;45.542;9.238;2022-08-19T01:44:35;6.53;;;1.75;;
25569;SDS011;17955;45.542;9.238;2022-08-19T01:47:03;6.05;;;1.83;;
25569;SDS011;17955;45.542;9.238;2022-08-19T01:49:30;5.78;;;2.05;;
25569;SDS011;17955;45.542;9.238;2022-08-19T01:51:58;4.07;;;1.73;;
25569;SDS011;17955;45.542;9.238;2022-08-19T01:54:26;4.32;;;1.75;;
25569;SDS011;17955;45.542;9.238;2022-08-19T01:56:55;9.60;;;2.00;;
25569;SDS011;17955;45.542;9.238;2022-08-19T01:59:27;5.00;;;1.65;;
25569;SDS011;17955;45.542;9.238;2022-08-19T02:01:54;8.13;;;1.92;;
25569;SDS011;17955;45.542;9.238;2022-08-19T02:04:22;5.85;;;1.77;;
25569;SDS011;17955;45.542;9.238;2022-08-19T02:06:50;6.72;;;2.42;;
25569;SDS011;17955;45.542;9.238;2022-08-19T02:09:17;4.13;;;1.70;;
25569;SDS011;17955;45.542;9.238;2022-08-19T02:11:44;6.43;;;2.33;;
25569;SDS011;17955;45.542;9.238;2022-08-19T02:14:11;8.20;;;2.20;;
25569;SDS011;17955;45.542;9.238;2022-08-19T02:16:40;3.97;;;1.80;;
25569;SDS011;17955;45.542;9.238;2022-08-19T02:19:07;4.35;;;1.60;;
25569;SDS011;17955;45.542;9.238;2022-08-19T02:21:35;5.75;;;1.90;;
25569;SDS011;17955;45.542;9.238;2022-08-19T02:24:03;5.55;;;1.75;;
25569;SDS011;17955;45.542;9.238;2022-08-19T02:26:31;4.57;;;1.80;;
25569;SDS011;17955;45.542;9.238;2022-08-19T02:28:59;4.95;;;1.70;;
25569;SDS011;17955;45.542;9.238;2022-08-19T02:31:26;6.40;;;1.80;;
25569;SDS011;17955;45.542;9.238;2022-08-19T02:33:55;7.57;;;2.00;;
25569;SDS011;17955;45.542;9.238;2022-08-19T02:36:23;4.45;;;1.75;;
25569;SDS011;17955;45.542;9.238;2022-08-19T02:38:51;5.07;;;1.98;;
25569;SDS011;17955;45.542;9.238;2022-08-19T02:41:18;9.77;;;2.15;;
25569;SDS011;17955;45.542;9.238;2022-08-19T02:43:46;4.63;;;1.98;;
25569;SDS011;17955;45.542;9.238;2022-08-19T02:46:15;5.80;;;1.70;;
25569;SDS011;17955;45.542;9.238;2022-08-19T02:48:46;5.28;;;1.95;;
25569;SDS011;17955;45.542;9.238;2022-08-19T02:51:16;9.63;;;2.08;;
25569;SDS011;17955;45.542;9.238;2022-08-19T02:53:44;6.28;;;1.73;;
25569;SDS011;17955;45.542;9.238;2022-08-19T02:56:11;3.50;;;1.60;;
25569;SDS011;17955;45.542;9.238;2022-08-19T02:58:38;7.60;;;2.13;;
25569;SDS011;17955;45.542;9.238;2022-08-19T03:01:06;6.18;;;2.10;;
25569;SDS011;17955;45.542;9.238;2022-08-19T03:03:33;5.70;;;1.92;;
25569;SDS011;17955;45.542;9.238;2022-08-19T03:06:04;3.88;;;2.28;;
25569;SDS011;17955;45.542;9.238;2022-08-19T03:08:34;6.75;;;2.10;;
25569;SDS011;17955;45.542;9.238;2022-08-19T03:11:02;6.55;;;2.08;;
25569;SDS011;17955;45.542;9.238;2022-08-19T03:13:29;4.55;;;2.38;;
25569;SDS011;17955;45.542;9.238;2022-08-19T03:15:56;6.50;;;2.15;;
25569;SDS011;17955;45.542;9.238;2022-08-19T03:18:23;6.68;;;2.25;;
25569;SDS011;17955;45.542;9.238;2022-08-19T03:20:51;6.85;;;2.60;;
25569;SDS011;17955;45.542;9.238;2022-08-19T03:23:19;5.93;;;2.00;;
25569;SDS011;17955;45.542;9.238;2022-08-19T03:25:49;4.88;;;2.58;;
25569;SDS011;17955;45.542;9.238;2022-08-19T03:28:19;5.70;;;1.88;;
25569;SDS011;17955;45.542;9.238;2022-08-19T03:30:54;9.70;;;2.20;;
25569;SDS011;17955;45.542;9.238;2022-08-19T03:33:23;4.13;;;2.00;;
25569;SDS011;17955;45.542;9.238;2022-08-19T03:36:01;3.88;;;1.95;;
25569;SDS011;17955;45.542;9.238;2022-08-19T03:38:30;6.30;;;2.92;;
25569;SDS011;17955;45.542;9.238;2022-08-19T03:40:58;4.28;;;2.05;;
25569;SDS011;17955;45.542;9.238;2022-08-19T03:43:32;5.75;;;2.33;;
25569;SDS011;17955;45.542;9.238;2022-08-19T03:46:00;4.38;;;2.08;;
25569;SDS011;17955;45.542;9.238;2022-08-19T03:48:29;7.65;;;2.28;;
25569;SDS011;17955;45.542;9.238;2022-08-19T03:50:57;6.32;;;2.22;;
25569;SDS011;17955;45.542;9.238;2022-08-19T03:53:25;8.05;;;2.60;;
25569;SDS011;17955;45.542;9.238;2022-08-19T03:55:52;5.63;;;2.58;;
25569;SDS011;17955;45.542;9.238;2022-08-19T03:58:21;9.05;;;2.60;;
25569;SDS011;17955;45.542;9.238;2022-08-19T04:00:48;7.38;;;3.20;;
25569;SDS011;17955;45.542;9.238;2022-08-19T04:03:16;5.18;;;2.10;;
25569;SDS011;17955;45.542;9.238;2022-08-19T04:05:44;7.82;;;2.78;;
25569;SDS011;17955;45.542;9.238;2022-08-19T04:08:12;11.10;;;3.65;;
25569;SDS011;17955;45.542;9.238;2022-08-19T04:10:40;5.10;;;2.28;;
25569;SDS011;17955;45.542;9.238;2022-08-19T04:13:07;4.97;;;2.33;;
25569;SDS011;17955;45.542;9.238;2022-08-19T04:15:39;6.60;;;2.22;;
25569;SDS011;17955;45.542;9.238;2022-08-19T04:18:07;7.05;;;2.55;;
25569;SDS011;17955;45.542;9.238;2022-08-19T04:20:38;4.80;;;2.47;;
25569;SDS011;17955;45.542;9.238;2022-08-19T04:23:09;5.93;;;2.60;;
25569;SDS011;17955;45.542;9.238;2022-08-19T04:25:37;5.07;;;2.47;;
25569;SDS011;17955;45.542;9.238;2022-08-19T04:28:05;7.50;;;2.88;;
25569;SDS011;17955;45.542;9.238;2022-08-19T04:30:39;6.53;;;2.40;;
25569;SDS011;17955;45.542;9.238;2022-08-19T04:33:08;6.10;;;2.20;;
25569;SDS011;17955;45.542;9.238;2022-08-19T04:35:36;6.68;;;2.22;;
25569;SDS011;17955;45.542;9.238;2022-08-19T04:38:05;5.63;;;2.35;;
25569;SDS011;17955;45.542;9.238;2022-08-19T04:40:33;6.75;;;2.92;;
25569;SDS011;17955;45.542;9.238;2022-08-19T04:43:17;7.18;;;2.40;;
25569;SDS011;17955;45.542;9.238;2022-08-19T04:45:45;4.50;;;2.30;;
25569;SDS011;17955;45.542;9.238;2022-08-19T04:48:12;8.57;;;3.00;;
25569;SDS011;17955;45.542;9.238;2022-08-19T04:50:40;8.18;;;2.60;;
25569;SDS011;17955;45.542;9.238;2022-08-19T04:53:08;6.07;;;2.75;;
25569;SDS011;17955;45.542;9.238;2022-08-19T04:55:38;7.25;;;3.15;;
25569;SDS011;17955;45.542;9.238;2022-08-19T04:58:06;11.00;;;3.92;;
25569;SDS011;17955;45.542;9.238;2022-08-19T05:00:33;5.63;;;2.88;;
25569;SDS011;17955;45.542;9.238;2022-08-19T05:03:02;5.55;;;2.67;;
25569;SDS011;17955;45.542;9.238;2022-08-19T05:05:29;6.18;;;3.03;;
25569;SDS011;17955;45.542;9.238;2022-08-19T05:07:57;7.85;;;3.20;;
25569;SDS011;17955;45.542;9.238;2022-08-19T05:10:24;6.60;;;3.42;;
25569;SDS011;17955;45.542;9.238;2022-08-19T05:12:51;5.78;;;2.88;;
25569;SDS011;17955;45.542;9.238;2022-08-19T05:15:18;8.18;;;2.97;;
25569;SDS011;17955;45.542;9.238;2022-08-19T05:17:45;11.82;;;3.53;;
25569;SDS011;17955;45.542;9.238;2022-08-19T05:20:28;11.40;;;4.60;;
25569;SDS011;17955;45.542;9.238;2022-08-19T05:23:13;8.90;;;3.83;;
25569;SDS011;17955;45.542;9.238;2022-08-19T05:25:42;12.32;;;5.05;;
25569;SDS011;17955;45.542;9.238;2022-08-19T05:28:09;9.50;;;5.00;;
25569;SDS011;17955;45.542;9.238;2022-08-19T05:30:36;11.73;;;5.43;;
25569;SDS011;17955;45.542;9.238;2022-08-19T05:33:06;10.20;;;5.47;;
25569;SDS011;17955;45.542;9.238;2022-08-19T05:35:37;9.27;;;4.88;;
25569;SDS011;17955;45.542;9.238;2022-08-19T05:38:06;8.10;;;4.97;;
25569;SDS011;17955;45.542;9.238;2022-08-19T05:40:33;14.25;;;4.75;;
25569;SDS011;17955;45.542;9.238;2022-08-19T05:43:02;11.48;;;5.68;;
25569;SDS011;17955;45.542;9.238;2022-08-19T05:45:29;8.07;;;4.28;;
25569;SDS011;17955;45.542;9.238;2022-08-19T05:47:57;10.98;;;4.53;;
25569;SDS011;17955;45.542;9.238;2022-08-19T05:50:24;9.43;;;4.47;;
25569;SDS011;17955;45.542;9.238;2022-08-19T05:52:53;7.32;;;4.57;;
25569;SDS011;17955;45.542;9.238;2022-08-19T05:55:20;10.73;;;4.70;;
25569;SDS011;17955;45.542;9.238;2022-08-19T05:57:48;10.13;;;5.05;;
25569;SDS011;17955;45.542;9.238;2022-08-19T06:00:16;11.25;;;5.03;;
25569;SDS011;17955;45.542;9.238;2022-08-19T06:02:43;8.05;;;5.13;;
25569;SDS011;17955;45.542;9.238;2022-08-19T06:05:10;9.85;;;5.05;;
25569;SDS011;17955;45.542;9.238;2022-08-19T06:07:37;8.18;;;4.93;;
25569;SDS011;17955;45.542;9.238;2022-08-19T06:10:08;12.68;;;5.65;;
25569;SDS011;17955;45.542;9.238;2022-08-19T06:12:37;10.85;;;5.95;;
25569;SDS011;17955;45.542;9.238;2022-08-19T06:15:05;10.48;;;5.85;;
25569;SDS011;17955;45.542;9.238;2022-08-19T06:17:34;13.50;;;6.60;;
25569;SDS011;17955;45.542;9.238;2022-08-19T06:20:02;16.58;;;6.88;;
25569;SDS011;17955;45.542;9.238;2022-08-19T06:22:30;12.65;;;7.22;;
25569;SDS011;17955;45.542;9.238;2022-08-19T06:24:57;12.85;;;6.68;;
25569;SDS011;17955;45.542;9.238;2022-08-19T06:27:25;16.45;;;7.97;;
25569;SDS011;17955;45.542;9.238;2022-08-19T06:29:54;14.65;;;8.07;;
25569;SDS011;17955;45.542;9.238;2022-08-19T06:32:21;13.90;;;8.52;;
25569;SDS011;17955;45.542;9.238;2022-08-19T06:34:48;10.77;;;7.50;;
25569;SDS011;17955;45.542;9.238;2022-08-19T06:37:16;13.35;;;8.02;;
25569;SDS011;17955;45.542;9.238;2022-08-19T06:39:43;11.27;;;7.90;;
25569;SDS011;17955;45.542;9.238;2022-08-19T06:42:11;14.27;;;7.85;;
25569;SDS011;17955;45.542;9.238;2022-08-19T06:44:43;11.75;;;8.15;;
25569;SDS011;17955;45.542;9.238;2022-08-19T06:47:12;13.48;;;7.75;;
25569;SDS011;17955;45.542;9.238;2022-08-19T06:49:40;11.23;;;7.28;;
25569;SDS011;17955;45.542;9.238;2022-08-19T06:52:08;15.32;;;7.80;;
25569;SDS011;17955;45.542;9.238;2022-08-19T06:54:36;14.88;;;8.18;;
25569;SDS011;17955;45.542;9.238;2022-08-19T06:57:05;16.13;;;8.65;;
25569;SDS011;17955;45.542;9.238;2022-08-19T06:59:34;18.23;;;9.18;;
25569;SDS011;17955;45.542;9.238;2022-08-19T07:02:04;22.27;;;8.55;;
25569;SDS011;17955;45.542;9.238;2022-08-19T07:04:33;11.85;;;6.78;;
25569;SDS011;17955;45.542;9.238;2022-08-19T07:07:04;11.68;;;6.82;;
25569;SDS011;17955;45.542;9.238;2022-08-19T07:09:33;11.63;;;6.65;;
25569;SDS011;17955;45.542;9.238;2022-08-19T07:12:02;11.90;;;6.10;;
25569;SDS011;17955;45.542;9.238;2022-08-19T07:14:30;12.90;;;6.03;;
25569;SDS011;17955;45.542;9.238;2022-08-19T07:16:57;14.18;;;7.05;;
25569;SDS011;17955;45.542;9.238;2022-08-19T07:19:25;10.32;;;5.90;;
25569;SDS011;17955;45.542;9.238;2022-08-19T07:21:53;13.07;;;5.82;;
25569;SDS011;17955;45.542;9.238;2022-08-19T07:24:22;11.15;;;5.53;;
25569;SDS011;17955;45.542;9.238;2022-08-19T07:26:51;9.63;;;4.85;;
25569;SDS011;17955;45.542;9.238;2022-08-19T07:29:20;12.38;;;5.50;;
25569;SDS011;17955;45.542;9.238;2022-08-19T07:31:48;7.57;;;4.88;;
25569;SDS011;17955;45.542;9.238;2022-08-19T07:34:15;6.57;;;4.30;;
25569;SDS011;17955;45.542;9.238;2022-08-19T07:36:45;10.40;;;4.25;;
25569;SDS011;17955;45.542;9.238;2022-08-19T07:39:13;11.00;;;5.45;;
25569;SDS011;17955;45.542;9.238;2022-08-19T07:41:42;11.70;;;4.53;;
25569;SDS011;17955;45.542;9.238;2022-08-19T07:44:11;8.88;;;5.07;;
25569;SDS011;17955;45.542;9.238;2022-08-19T07:46:40;8.25;;;5.10;;
25569;SDS011;17955;45.542;9.238;2022-08-19T07:49:09;13.10;;;5.18;;
25569;SDS011;17955;45.542;9.238;2022-08-19T07:51:46;19.58;;;5.00;;
25569;SDS011;17955;45.542;9.238;2022-08-19T07:54:14;11.48;;;5.50;;
25569;SDS011;17955;45.542;9.238;2022-08-19T07:56:41;12.27;;;5.93;;
25569;SDS011;17955;45.542;9.238;2022-08-19T07:59:08;7.82;;;4.55;;
25569;SDS011;17955;45.542;9.238;2022-08-19T08:01:35;10.80;;;4.90;;
25569;SDS011;17955;45.542;9.238;2022-08-19T08:04:05;12.95;;;4.82;;
25569;SDS011;17955;45.542;9.238;2022-08-19T08:06:52;10.53;;;4.57;;
25569;SDS011;17955;45.542;9.238;2022-08-19T08:09:37;10.27;;;4.35;;
25569;SDS011;17955;45.542;9.238;2022-08-19T08:12:07;6.28;;;4.18;;
25569;SDS011;17955;45.542;9.238;2022-08-19T08:14:39;12.10;;;4.35;;
25569;SDS011;17955;45.542;9.238;2022-08-19T08:17:08;9.20;;;5.00;;
25569;SDS011;17955;45.542;9.238;2022-08-19T08:19:37;12.32;;;4.93;;
25569;SDS011;17955;45.542;9.238;2022-08-19T08:22:07;10.30;;;4.90;;
25569;SDS011;17955;45.542;9.238;2022-08-19T08:24:55;8.27;;;5.22;;
25569;SDS011;17955;45.542;9.238;2022-08-19T08:27:24;8.98;;;4.35;;
25569;SDS011;17955;45.542;9.238;2022-08-19T08:29:54;10.35;;;5.40;;
25569;SDS011;17955;45.542;9.238;2022-08-19T08:32:21;11.70;;;4.78;;
25569;SDS011;17955;45.542;9.238;2022-08-19T08:34:48;16.35;;;8.90;;
25569;SDS011;17955;45.542;9.238;2022-08-19T08:37:16;11.23;;;4.80;;
25569;SDS011;17955;45.542;9.238;2022-08-19T08:39:43;6.50;;;4.18;;
25569;SDS011;17955;45.542;9.238;2022-08-19T08:42:12;11.40;;;5.68;;
25569;SDS011;17955;45.542;9.238;2022-08-19T08:44:47;7.68;;;4.20;;
25569;SDS011;17955;45.542;9.238;2022-08-19T08:47:18;13.30;;;5.25;;
25569;SDS011;17955;45.542;9.238;2022-08-19T08:49:49;19.80;;;7.18;;
25569;SDS011;17955;45.542;9.238;2022-08-19T08:52:22;12.55;;;5.18;;
25569;SDS011;17955;45.542;9.238;2022-08-19T08:54:52;14.02;;;5.22;;
25569;SDS011;17955;45.542;9.238;2022-08-19T08:57:24;22.67;;;7.03;;
25569;SDS011;17955;45.542;9.238;2022-08-19T08:59:55;8.65;;;4.70;;
25569;SDS011;17955;45.542;9.238;2022-08-19T09:02:29;8.48;;;4.22;;
25569;SDS011;17955;45.542;9.238;2022-08-19T09:04:56;8.02;;;3.90;;
25569;SDS011;17955;45.542;9.238;2022-08-19T09:07:29;16.30;;;5.30;;
25569;SDS011;17955;45.542;9.238;2022-08-19T09:10:07;11.23;;;5.28;;
25569;SDS011;17955;45.542;9.238;2022-08-19T09:12:43;17.85;;;5.95;;
25569;SDS011;17955;45.542;9.238;2022-08-19T09:15:18;16.23;;;5.35;;
25569;SDS011;17955;45.542;9.238;2022-08-19T09:17:52;7.88;;;3.40;;
25569;SDS011;17955;45.542;9.238;2022-08-19T09:20:20;7.10;;;3.60;;
25569;SDS011;17955;45.542;9.238;2022-08-19T09:22:49;9.07;;;3.83;;
25569;SDS011;17955;45.542;9.238;2022-08-19T09:25:17;12.77;;;3.85;;
25569;SDS011;17955;45.542;9.238;2022-08-19T09:27:47;7.28;;;3.55;;
25569;SDS011;17955;45.542;9.238;2022-08-19T09:30:19;6.53;;;3.72;;
25569;SDS011;17955;45.542;9.238;2022-08-19T09:32:49;9.95;;;3.38;;
25569;SDS011;17955;45.542;9.238;2022-08-19T09:35:18;8.18;;;3.40;;
25569;SDS011;17955;45.542;9.238;2022-08-19T09:37:47;8.18;;;3.00;;
25569;SDS011;17955;45.542;9.238;2022-08-19T09:40:16;5.50;;;2.85;;
25569;SDS011;17955;45.542;9.238;2022-08-19T09:42:43;7.70;;;3.25;;
25569;SDS011;17955;45.542;9.238;2022-08-19T09:45:12;7.00;;;3.40;;
25569;SDS011;17955;45.542;9.238;2022-08-19T09:47:40;8.30;;;3.50;;
25569;SDS011;17955;45.542;9.238;2022-08-19T09:50:08;6.03;;;3.75;;
25569;SDS011;17955;45.542;9.238;2022-08-19T09:52:36;8.00;;;3.88;;
25569;SDS011;17955;45.542;9.238;2022-08-19T09:55:04;7.65;;;3.40;;
25569;SDS011;17955;45.542;9.238;2022-08-19T09:57:34;5.43;;;3.55;;
25569;SDS011;17955;45.542;9.238;2022-08-19T10:00:03;7.03;;;3.53;;
25569;SDS011;17955;45.542;9.238;2022-08-19T10:02:32;6.13;;;3.38;;
25569;SDS011;17955;45.542;9.238;2022-08-19T10:05:00;5.82;;;3.20;;
25569;SDS011;17955;45.542;9.238;2022-08-19T10:07:44;7.40;;;3.60;;
25569;SDS011;17955;45.542;9.238;2022-08-19T10:10:12;6.78;;;2.95;;
25569;SDS011;17955;45.542;9.238;2022-08-19T10:12:40;13.35;;;3.30;;
25569;SDS011;17955;45.542;9.238;2022-08-19T10:15:12;6.03;;;2.60;;
25569;SDS011;17955;45.542;9.238;2022-08-19T10:17:39;9.98;;;3.00;;
25569;SDS011;17955;45.542;9.238;2022-08-19T10:20:07;6.95;;;2.65;;
25569;SDS011;17955;45.542;9.238;2022-08-19T10:22:34;6.03;;;2.67;;
25569;SDS011;17955;45.542;9.238;2022-08-19T10:25:03;6.25;;;2.80;;
25569;SDS011;17955;45.542;9.238;2022-08-19T10:27:31;6.43;;;2.67;;
25569;SDS011;17955;45.542;9.238;2022-08-19T10:30:00;4.88;;;2.10;;
25569;SDS011;17955;45.542;9.238;2022-08-19T10:32:27;7.15;;;1.80;;
25569;SDS011;17955;45.542;9.238;2022-08-19T10:34:54;6.20;;;2.50;;
25569;SDS011;17955;45.542;9.238;2022-08-19T10:37:22;5.88;;;3.00;;
25569;SDS011;17955;45.542;9.238;2022-08-19T10:39:50;8.88;;;2.50;;
25569;SDS011;17955;45.542;9.238;2022-08-19T10:42:18;8.55;;;3.22;;
25569;SDS011;17955;45.542;9.238;2022-08-19T10:44:45;4.82;;;2.28;;
25569;SDS011;17955;45.542;9.238;2022-08-19T10:47:14;8.07;;;2.40;;
25569;SDS011;17955;45.542;9.238;2022-08-19T10:49:41;5.00;;;2.00;;
25569;SDS011;17955;45.542;9.238;2022-08-19T10:52:26;6.30;;;1.63;;
25569;SDS011;17955;45.542;9.238;2022-08-19T10:57:47;6.13;;;2.00;;
25569;SDS011;17955;45.542;9.238;2022-08-19T11:00:14;7.93;;;3.42;;
25569;SDS011;17955;45.542;9.238;2022-08-19T11:02:46;6.32;;;2.60;;
25569;SDS011;17955;45.542;9.238;2022-08-19T11:05:13;5.28;;;2.20;;
25569;SDS011;17955;45.542;9.238;2022-08-19T11:07:40;5.60;;;2.10;;
25569;SDS011;17955;45.542;9.238;2022-08-19T11:10:10;3.35;;;1.90;;
25569;SDS011;17955;45.542;9.238;2022-08-19T11:12:39;8.98;;;4.72;;
25569;SDS011;17955;45.542;9.238;2022-08-19T11:15:08;5.03;;;2.42;;
25569;SDS011;17955;45.542;9.238;2022-08-19T11:17:36;8.15;;;2.00;;
25569;SDS011;17955;45.542;9.238;2022-08-19T11:20:08;9.85;;;1.63;;
25569;SDS011;17955;45.542;9.238;2022-08-19T11:22:37;9.32;;;4.07;;
25569;SDS011;17955;45.542;9.238;2022-08-19T11:25:05;4.03;;;2.22;;
25569;SDS011;17955;45.542;9.238;2022-08-19T11:27:33;6.70;;;3.08;;
25569;SDS011;17955;45.542;9.238;2022-08-19T11:30:05;5.75;;;1.92;;
25569;SDS011;17955;45.542;9.238;2022-08-19T11:32:32;6.38;;;2.05;;
25569;SDS011;17955;45.542;9.238;2022-08-19T11:35:00;7.70;;;2.30;;
25569;SDS011;17955;45.542;9.238;2022-08-19T11:37:28;4.05;;;1.63;;
25569;SDS011;17955;45.542;9.238;2022-08-19T11:39:55;5.47;;;1.85;;
25569;SDS011;17955;45.542;9.238;2022-08-19T11:42:22;3.30;;;1.20;;
25569;SDS011;17955;45.542;9.238;2022-08-19T11:45:07;4.57;;;1.80;;
25569;SDS011;17955;45.542;9.238;2022-08-19T11:47:35;5.30;;;2.00;;
25569;SDS011;17955;45.542;9.238;2022-08-19T11:50:04;3.13;;;1.52;;
25569;SDS011;17955;45.542;9.238;2022-08-19T11:52:32;3.17;;;1.20;;
25569;SDS011;17955;45.542;9.238;2022-08-19T11:55:00;4.97;;;1.52;;
25569;SDS011;17955;45.542;9.238;2022-08-19T11:57:27;3.33;;;1.25;;
25569;SDS011;17955;45.542;9.238;2022-08-19T11:59:54;2.80;;;1.20;;
25569;SDS011;17955;45.542;9.238;2022-08-19T12:02:21;5.53;;;1.48;;
25569;SDS011;17955;45.542;9.238;2022-08-19T12:04:48;4.22;;;1.45;;
25569;SDS011;17955;45.542;9.238;2022-08-19T12:07:16;3.33;;;1.17;;
25569;SDS011;17955;45.542;9.238;2022-08-19T12:09:44;7.75;;;1.33;;
25569;SDS011;17955;45.542;9.238;2022-08-19T12:12:11;5.18;;;1.58;;
25569;SDS011;17955;45.542;9.238;2022-08-19T12:14:38;3.80;;;1.40;;
25569;SDS011;17955;45.542;9.238;2022-08-19T12:17:05;5.53;;;1.60;;
25569;SDS011;17955;45.542;9.238;2022-08-19T12:19:35;5.10;;;1.63;;
25569;SDS011;17955;45.542;9.238;2022-08-19T12:22:02;3.40;;;1.27;;
25569;SDS011;17955;45.542;9.238;2022-08-19T12:24:31;3.00;;;1.20;;
25569;SDS011;17955;45.542;9.238;2022-08-19T12:26:59;5.00;;;1.15;;
25569;SDS011;17955;45.542;9.238;2022-08-19T12:29:27;2.78;;;1.20;;
25569;SDS011;17955;45.542;9.238;2022-08-19T12:31:54;6.97;;;2.45;;
25569;SDS011;17955;45.542;9.238;2022-08-19T12:34:26;4.38;;;1.98;;
25569;SDS011;17955;45.542;9.238;2022-08-19T12:36:56;3.40;;;1.30;;
25569;SDS011;17955;45.542;9.238;2022-08-19T12:39:23;4.38;;;1.10;;
25569;SDS011;17955;45.542;9.238;2022-08-19T12:41:51;3.55;;;1.40;;
25569;SDS011;17955;45.542;9.238;2022-08-19T12:44:19;5.25;;;1.80;;
25569;SDS011;17955;45.542;9.238;2022-08-19T12:46:47;6.25;;;2.72;;
25569;SDS011;17955;45.542;9.238;2022-08-19T12:49:14;22.88;;;11.85;;
25569;SDS011;17955;45.542;9.238;2022-08-19T12:51:41;4.20;;;1.75;;
25569;SDS011;17955;45.542;9.238;2022-08-19T12:54:09;3.60;;;1.40;;
25569;SDS011;17955;45.542;9.238;2022-08-19T12:56:36;3.35;;;1.17;;
25569;SDS011;17955;45.542;9.238;2022-08-19T12:59:03;3.20;;;1.10;;
25569;SDS011;17955;45.542;9.238;2022-08-19T13:01:34;3.42;;;1.75;;
25569;SDS011;17955;45.542;9.238;2022-08-19T13:04:01;7.15;;;1.58;;
25569;SDS011;17955;45.542;9.238;2022-08-19T13:06:28;5.28;;;1.67;;
25569;SDS011;17955;45.542;9.238;2022-08-19T13:08:55;6.47;;;2.50;;
25569;SDS011;17955;45.542;9.238;2022-08-19T13:11:22;4.20;;;1.45;;
25569;SDS011;17955;45.542;9.238;2022-08-19T13:13:51;3.58;;;1.33;;
25569;SDS011;17955;45.542;9.238;2022-08-19T13:16:20;2.97;;;1.20;;
25569;SDS011;17955;45.542;9.238;2022-08-19T13:18:48;4.43;;;1.65;;
25569;SDS011;17955;45.542;9.238;2022-08-19T13:21:17;9.35;;;4.68;;
25569;SDS011;17955;45.542;9.238;2022-08-19T13:23:46;2.85;;;1.20;;
25569;SDS011;17955;45.542;9.238;2022-08-19T13:26:13;4.35;;;2.15;;
25569;SDS011;17955;45.542;9.238;2022-08-19T13:28:41;4.30;;;1.38;;
25569;SDS011;17955;45.542;9.238;2022-08-19T13:31:28;4.87;;;1.40;;
25569;SDS011;17955;45.542;9.238;2022-08-19T13:34:17;4.00;;;1.08;;
25569;SDS011;17955;45.542;9.238;2022-08-19T13:36:46;6.53;;;1.83;;
25569;SDS011;17955;45.542;9.238;2022-08-19T13:39:13;3.55;;;1.35;;
25569;SDS011;17955;45.542;9.238;2022-08-19T13:41:43;4.53;;;1.00;;
25569;SDS011;17955;45.542;9.238;2022-08-19T13:44:13;8.05;;;3.35;;
25569;SDS011;17955;45.542;9.238;2022-08-19T13:46:40;4.35;;;1.20;;
25569;SDS011;17955;45.542;9.238;2022-08-19T13:49:10;4.03;;;2.00;;
25569;SDS011;17955;45.542;9.238;2022-08-19T13:51:39;7.15;;;1.35;;
25569;SDS011;17955;45.542;9.238;2022-08-19T13:54:06;3.47;;;1.15;;
25569;SDS011;17955;45.542;9.238;2022-08-19T13:56:35;3.10;;;1.08;;
25569;SDS011;17955;45.542;9.238;2022-08-19T13:59:06;1.75;;;0.80;;
25569;SDS011;17955;45.542;9.238;2022-08-19T14:01:33;3.00;;;1.27;;
25569;SDS011;17955;45.542;9.238;2022-08-19T14:04:00;2.47;;;0.80;;
25569;SDS011;17955;45.542;9.238;2022-08-19T14:06:27;4.95;;;1.10;;
25569;SDS011;17955;45.542;9.238;2022-08-19T14:08:55;4.85;;;0.90;;
25569;SDS011;17955;45.542;9.238;2022-08-19T14:11:22;6.93;;;2.83;;
25569;SDS011;17955;45.542;9.238;2022-08-19T14:13:49;3.03;;;0.82;;
25569;SDS011;17955;45.542;9.238;2022-08-19T14:16:16;1.60;;;0.50;;
25569;SDS011;17955;45.542;9.238;2022-08-19T14:18:43;1.63;;;0.50;;
25569;SDS011;17955;45.542;9.238;2022-08-19T14:21:14;2.78;;;0.50;;
25569;SDS011;17955;45.542;9.238;2022-08-19T14:23:42;1.60;;;0.40;;
25569;SDS011;17955;45.542;9.238;2022-08-19T14:26:13;0.98;;;0.40;;
25569;SDS011;17955;45.542;9.238;2022-08-19T14:28:42;2.40;;;0.68;;
25569;SDS011;17955;45.542;9.238;2022-08-19T14:31:09;1.98;;;0.60;;
25569;SDS011;17955;45.542;9.238;2022-08-19T14:33:37;1.80;;;0.55;;
25569;SDS011;17955;45.542;9.238;2022-08-19T14:36:04;1.30;;;0.75;;
25569;SDS011;17955;45.542;9.238;2022-08-19T14:38:31;2.03;;;0.57;;
25569;SDS011;17955;45.542;9.238;2022-08-19T14:41:09;1.48;;;0.60;;
25569;SDS011;17955;45.542;9.238;2022-08-19T14:43:41;1.27;;;0.55;;
25569;SDS011;17955;45.542;9.238;2022-08-19T14:46:12;1.52;;;0.52;;
25569;SDS011;17955;45.542;9.238;2022-08-19T14:48:40;2.22;;;0.60;;
25569;SDS011;17955;45.542;9.238;2022-08-19T14:51:07;3.10;;;1.77;;
25569;SDS011;17955;45.542;9.238;2022-08-19T14:53:35;2.30;;;1.05;;
25569;SDS011;17955;45.542;9.238;2022-08-19T14:56:06;1.63;;;0.28;;
25569;SDS011;17955;45.542;9.238;2022-08-19T14:58:35;0.73;;;0.40;;